S/y Squall — ZCIF2 — position and weather

sailwx.info

Track history (hours):
 
Tides and Currents Weather Stations Pressure Air Temp Water Temp Dewpoint Dewpoint Depression Visibility Wind Speed Wind Dir Waves Ship Positions

S/y Squall

Last reported at 2016-Jun-29 08:32 UTC. Time now 2016-Jun-29 09:15 UTC.
Position N 39°34' E 002°38'.

Length 52 m; draft 5.2 m.

Type: Sailing vessel. MMSI: 319811000.

Date/timePositionNaut miles runAvg speedWind from/ knotsBaromVisibWave heightAir tempDewpointWater temp
2016-Jun-29 08:32N 39°34' E 002°38'0 0.0
2016-Jun-29 07:32N 39°34' E 002°38'0 0.0
2016-Jun-29 06:32N 39°34' E 002°38'0 0.0
2016-Jun-29 05:32N 39°34' E 002°38'0 0.0
2016-Jun-29 04:32N 39°34' E 002°38'0 0.0
2016-Jun-29 03:32N 39°34' E 002°38'0 0.0
2016-Jun-29 02:32N 39°34' E 002°38'0 0.0
2016-Jun-29 01:32N 39°34' E 002°38'0 0.0
2016-Jun-29 00:31N 39°34' E 002°38'0 0.0
2016-Jun-28 23:32N 39°34' E 002°38'0 0.0
2016-Jun-28 22:32N 39°34' E 002°38'0 0.0
2016-Jun-28 21:32N 39°34' E 002°38'0 0.0
2016-Jun-28 20:32N 39°34' E 002°38'0 0.0
2016-Jun-28 19:32N 39°34' E 002°38'0 0.0
2016-Jun-28 18:31N 39°34' E 002°38'0 0.0
2016-Jun-28 17:31N 39°34' E 002°38'0 0.0
2016-Jun-28 16:32N 39°34' E 002°38'0 0.0
2016-Jun-28 15:32N 39°34' E 002°38'0 0.2
2016-Jun-28 14:33N 39°34' E 002°38'7 6.7
2016-Jun-28 13:33N 39°28' E 002°33'1111.2
2016-Jun-28 12:33N 39°22' E 002°21'1111.3
2016-Jun-28 11:33N 39°18' E 002°07'1211.4
2016-Jun-28 10:33N 39°15' E 001°53'1211.5
2016-Jun-28 09:33N 39°10' E 001°39'1111.4
2016-Jun-28 08:33N 39°06' E 001°26'1111.5
2016-Jun-28 07:33N 39°00' E 001°13'4 1.3
2016-Jun-28 04:33N 38°56' E 001°14'  
2016-Jun-25 04:06N 38°59' E 001°17'0 0.0
2016-Jun-24 23:24N 38°59' E 001°17'0 0.0
2016-Jun-24 22:30N 38°59' E 001°17'0 0.0
2016-Jun-24 12:23N 38°59' E 001°17'1 0.0
2016-Jun-22 16:15N 39°00' E 001°16'710.2
2016-Jun-22 15:33N 39°06' E 001°21'1111.2
2016-Jun-22 14:33N 39°11' E 001°34'1110.9
2016-Jun-22 13:33N 39°14' E 001°48'1110.8
2016-Jun-22 12:33N 39°18' E 002°01'1111.0
2016-Jun-22 11:32N 39°22' E 002°15'1111.2
2016-Jun-22 10:33N 39°25' E 002°28'12 9.7
2016-Jun-22 09:22N 39°34' E 002°38'  
Track history (hours):
 
Tides and Currents Weather Stations Pressure Air Temp Water Temp Dewpoint Dewpoint Depression Visibility Wind Speed Wind Dir Waves Ship Positions

S/y Squall

Last reported at 2016-Jun-29 08:32 UTC. Time now 2016-Jun-29 09:15 UTC.
Position N 39°34' E 002°38'.

Length 52 m; draft 5.2 m.

Type: Sailing vessel. MMSI: 319811000.

Date/timePositionNaut miles runAvg speedWind from/ knotsBaromVisibWave heightAir tempDewpointWater temp
2016-Jun-29 08:32N 39°34' E 002°38'0 0.0
2016-Jun-29 07:32N 39°34' E 002°38'0 0.0
2016-Jun-29 06:32N 39°34' E 002°38'0 0.0
2016-Jun-29 05:32N 39°34' E 002°38'0 0.0
2016-Jun-29 04:32N 39°34' E 002°38'0 0.0
2016-Jun-29 03:32N 39°34' E 002°38'0 0.0
2016-Jun-29 02:32N 39°34' E 002°38'0 0.0
2016-Jun-29 01:32N 39°34' E 002°38'0 0.0
2016-Jun-29 00:31N 39°34' E 002°38'0 0.0
2016-Jun-28 23:32N 39°34' E 002°38'0 0.0
2016-Jun-28 22:32N 39°34' E 002°38'0 0.0
2016-Jun-28 21:32N 39°34' E 002°38'0 0.0
2016-Jun-28 20:32N 39°34' E 002°38'0 0.0
2016-Jun-28 19:32N 39°34' E 002°38'0 0.0
2016-Jun-28 18:31N 39°34' E 002°38'0 0.0
2016-Jun-28 17:31N 39°34' E 002°38'0 0.0
2016-Jun-28 16:32N 39°34' E 002°38'0 0.0
2016-Jun-28 15:32N 39°34' E 002°38'0 0.2
2016-Jun-28 14:33N 39°34' E 002°38'7 6.7
2016-Jun-28 13:33N 39°28' E 002°33'1111.2
2016-Jun-28 12:33N 39°22' E 002°21'1111.3
2016-Jun-28 11:33N 39°18' E 002°07'1211.4
2016-Jun-28 10:33N 39°15' E 001°53'1211.5
2016-Jun-28 09:33N 39°10' E 001°39'1111.4
2016-Jun-28 08:33N 39°06' E 001°26'1111.5
2016-Jun-28 07:33N 39°00' E 001°13'4 1.3
2016-Jun-28 04:33N 38°56' E 001°14'  
2016-Jun-25 04:06N 38°59' E 001°17'0 0.0
2016-Jun-24 23:24N 38°59' E 001°17'0 0.0
2016-Jun-24 22:30N 38°59' E 001°17'0 0.0
2016-Jun-24 12:23N 38°59' E 001°17'1 0.0
2016-Jun-22 16:15N 39°00' E 001°16'710.2
2016-Jun-22 15:33N 39°06' E 001°21'1111.2
2016-Jun-22 14:33N 39°11' E 001°34'1110.9
2016-Jun-22 13:33N 39°14' E 001°48'1110.8
2016-Jun-22 12:33N 39°18' E 002°01'1111.0
2016-Jun-22 11:32N 39°22' E 002°15'1111.2
2016-Jun-22 10:33N 39°25' E 002°28'12 9.7
2016-Jun-22 09:22N 39°34' E 002°38'  

Dump ship's entire track history